Yichuan, China
Current Conditions -  °F | °C
As of 4:00 AM on Monday 22 Dec 2014 (Local Time) from ZHCC Reporting Station
Clear Clear  
Wind Chill: 25°   Ceiling: Unl
Heat Index: 25°   Visibility: 6mi
Dew Point:   Wind: 2mph
Humidity: 50%   Direction: NA
Pressure: 30.33"   Gusts: NA
Location:  34.42°N, 112.43°E
Report Text: ZHCC 212000Z VRB01MPS CAVOK M04/M13 Q1027 NOSIG
Loading
Personal Weather Stations






























Interactive Weather Map New forecast layout! Learn more

10-Day Weather Forecast

Advertisements
Track Severe Weather on mobile